• Join FlightAware (Why Join?)
  • Login
  • US Flag 
02:44AM EDT


 

Airport Tracker/Info


-or-


 

Live Flight TrackerFlight Track Log ✈ CTL9 ✈ 24-May-2013 ✈ KSGR - KDAL

Flight Track Log - Related Links

Times and Time Zones

All times are in EDT time to prevent confusion due to time zone crossing. See the CTL9 flight status page for this flight to view local times or setup timezone preferences in your user account.

Time Position Orientation Groundspeed Altitude Reporting Facility
EDT Latitude Longitude Course Direction KTS MPH feet Rate Location/Type
07:24PM 29.5892 -95.6575 177° South 126 145 1,800  Level Houston Center
07:24PM 29.5744 -95.6567 177° South 93 107 2,400 960 Climbing Houston Center
07:25PM 29.5558 -95.6614 192° South 93 107 3,200 780 Climbing Houston Center
07:26PM 29.5578 -95.6772 278° West 122 140 3,600 780 Climbing Houston Center
07:26PM 29.5597 -95.7042 275° West 129 148 4,000 360 Climbing Houston Center
07:27PM 29.5617 -95.7272 276° West 131 151 4,000  Level Houston Center
07:27PM 29.5703 -95.7533 291° West 177 204 4,000  Level Houston Center
07:28PM 29.5897 -95.7694 324° Northwest 173 199 4,000  Level Houston Center
07:28PM 29.6086 -95.7825 329° Northwest 181 208 4,000  Level Houston Center
07:29PM 29.6306 -95.8006 324° Northwest 176 203 4,000  Level Houston Center
07:29PM 29.6336 -95.8278 277° West 180 207 4,000  Level Houston Center
07:30PM 29.6322 -95.8539 267° West 173 199 4,000  Level Houston Center
07:30PM 29.6319 -95.8808 269° West 163 188 4,000  Level Houston Center
07:31PM 29.6522 -95.8983 323° Northwest 180 207 4,000  Level Houston Center
07:31PM 29.6750 -95.9167 325° Northwest 177 204 4,000  Level Houston Center
07:32PM 29.6928 -95.9303 326° Northwest 179 206 4,000  Level Houston Center
07:32PM 29.7136 -95.9506 320° Northwest 177 204 4,000  Level Houston Center
07:33PM 29.7406 -95.9708 327° Northwest 177 204 4,000  Level Houston Center
07:33PM 29.7564 -95.9819 329° Northwest 179 206 4,000  Level Houston Center
07:34PM 29.7808 -96.0044 321° Northwest 179 206 4,000  Level Houston Center
07:34PM 29.7975 -96.0206 320° Northwest 180 207 4,000  Level Houston Center
07:35PM 29.8233 -96.0414 325° Northwest 180 207 4,000  Level Houston Center
07:35PM 29.8383 -96.0567 319° Northwest 181 208 4,000 360 Level Houston Center
07:36PM 29.8622 -96.0758 325° Northwest 177 204 4,400 660 Climbing Houston Center
07:36PM 29.8747 -96.0886 318° Northwest 167 192 4,700 540 Climbing Houston Center
07:37PM 29.8983 -96.1067 326° Northwest 165 190 5,000 540 Climbing Houston Center
07:37PM 29.9167 -96.1128 344° North 171 197 5,300 660 Climbing Houston Center
07:38PM 29.9594 -96.1225 349° North 157 181 5,900 540 Climbing Houston Center
07:39PM 29.9858 -96.1194 North 159 183 6,300 660 Climbing Houston Center
07:39PM 30.0031 -96.1175 North 153 176 6,600 960 Climbing Houston Center
07:40PM 30.0278 -96.1128 North 153 176 7,300 1,260 Climbing Houston Center
07:41PM 30.0406 -96.1133 358° North 108 124 7,900 660 Climbing Houston Center
07:41PM 30.0633 -96.1094 North 110 127 8,000 60 Climbing Houston Center
07:42PM 30.0736 -96.1072 11° North 141 162 8,000  Level Houston Center
07:42PM 30.1061 -96.0981 14° North 152 175 8,000  Level Houston Center
07:43PM 30.1189 -96.0972 North 171 197 8,000  Level Houston Center
07:43PM 30.1550 -96.0925 North 174 200 8,000 60 Level Houston Center
07:44PM 30.1708 -96.0914 North 178 205 8,100  Climbing Houston Center
07:44PM 30.2058 -96.0844 10° North 181 208 8,000 -60 Descending Houston Center
07:46PM 30.2717 -96.0703 11° North 182 209 8,000  Level Houston Center
07:46PM 30.3056 -96.0650 North 181 208 8,000 -60 Level Houston Center
07:47PM 30.3653 -96.0583 North 183 211 7,900  Descending Houston Center
07:48PM 30.3797 -96.0556 North 179 206 8,000 60 Climbing Houston Center
07:48PM 30.4142 -96.0514 North 178 205 8,000  Level Houston Center
07:49PM 30.4300 -96.0544 351° North 181 208 8,000  Level Houston Center
07:50PM 30.4658 -96.0589 354° North 184 212 8,000 60 Level Houston Center
07:50PM 30.4806 -96.0586 North 185 213 8,100  Climbing Houston Center
07:51PM 30.5175 -96.0564 North 184 212 8,000 -60 Descending Houston Center
07:52PM 30.5678 -96.0567 360° North 180 207 8,000  Level Houston Center
07:53PM 30.6200 -96.0625 355° North 186 214 8,000  Level Houston Center
07:54PM 30.6706 -96.0619 North 182 209 8,000  Level Houston Center
07:55PM 30.7200 -96.0600 North 178 205 8,000  Level Houston Center
07:56PM 30.7842 -96.0506 North 186 214 8,000  Level Houston Center
07:57PM 30.8339 -96.0447 North 184 212 8,000  Level Houston Center
07:58PM 30.8856 -96.0339 10° North 184 212 8,000  Level Houston Center
07:59PM 30.9319 -96.0325 North 182 209 8,100  Climbing Houston Center
08:00PM 30.9839 -96.0308 North 186 214 8,100 -60 Level Houston Center
08:01PM 31.0361 -96.0250 North 188 216 8,000 -60 Descending Houston Center
08:02PM 31.0856 -96.0253 360° North 180 207 8,000  Level Houston Center
08:03PM 31.1461 -96.0356 352° North 182 209 8,000  Level Houston Center
08:04PM 31.1969 -96.0417 354° North 182 209 8,000  Level Houston Center
08:05PM 31.2461 -96.0469 355° North 178 205 8,100  Climbing Houston Center
08:06PM 31.2967 -96.0489 358° North 179 206 8,100 -60 Level Houston Center
08:07PM 31.3458 -96.0567 352° North 179 206 8,000  Descending Houston Center
08:08PM 31.3967 -96.0617 355° North 182 209 8,100  Climbing Houston Center
08:09PM 31.4467 -96.0672 355° North 179 206 8,100 -60 Level Houston Center
08:10PM 31.5075 -96.0800 350° North 183 211 8,000  Descending Houston Center
08:11PM 31.5508 -96.0944 344° North 184 212 8,100  Climbing Houston Center
08:12PM 31.6106 -96.1011 355° North 182 209 8,100 -120 Level Houston Center
08:13PM 31.6261 -96.1031 354° North 181 208 8,000  Descending Fort Worth Center
08:14PM 31.6742 -96.1075 355° North 175 201 8,100  Climbing Fort Worth Center
08:15PM 31.7286 -96.1214 348° North 182 209 8,100 -60 Level Fort Worth Center
08:16PM 31.7747 -96.1303 351° North 174 200 8,000 -300 Descending Fort Worth Center
08:17PM 31.8247 -96.1347 356° North 185 213 7,500 -540 Descending Fort Worth Center
08:18PM 31.8792 -96.1411 354° North 185 213 7,000 -600 Descending Fort Worth Center
08:19PM 31.9356 -96.1503 352° North 198 228 6,400 -480 Descending Fort Worth Center
08:20PM 31.9964 -96.1664 347° North 198 228 6,100 -180 Descending Fort Worth Center
08:21PM 32.0467 -96.1831 344° North 198 228 6,100  Level Fort Worth Center
08:22PM 32.0969 -96.2019 342° North 193 222 6,100 -60 Level Fort Worth Center
08:23PM 32.1450 -96.2233 339° North 188 216 6,000  Descending Fort Worth Center
08:24PM 32.1933 -96.2425 341° North 183 211 6,100 -60 Climbing Fort Worth Center
08:25PM 32.2394 -96.2711 332° Northwest 183 211 5,900 -120 Descending Fort Worth Center
08:26PM 32.2836 -96.2928 337° Northwest 183 211 5,900  Level Fort Worth Center
08:27PM 32.3319 -96.3242 331° Northwest 183 211 6,000  Climbing Fort Worth Center
08:28PM 32.3739 -96.3508 332° Northwest 183 211 5,900 -360 Descending Fort Worth Center
08:29PM 32.4283 -96.3797 336° Northwest 183 211 5,300 -1,020 Descending Fort Worth Center
08:30PM 32.4808 -96.4086 335° Northwest 206 237 3,900 -720 Descending Fort Worth Center
08:31PM 32.5394 -96.4375 337° Northwest 206 237 3,900  Level Fort Worth Center
08:32PM 32.5814 -96.4592 336° Northwest 199 229 3,900  Level Fort Worth Center
08:33PM 32.6339 -96.4908 333° Northwest 191 220 3,900 60 Level Fort Worth Center
08:34PM 32.6778 -96.5100 340° North 186 214 4,100  Climbing Fort Worth Center
08:35PM 32.7197 -96.5542 318° Northwest 186 214 3,900 -60 Descending Fort Worth Center
08:36PM 32.7533 -96.5908 317° Northwest 186 214 4,000 -420 Climbing Fort Worth Center
08:36PM 32.7833 -96.6333 310° West 212 244 3,200 -600 Descending Dallas / Fort Worth TRACON
08:37PM 32.8167 -96.6833 308° West 185 213 3,000 -180 Descending Dallas / Fort Worth TRACON
08:38PM 32.8500 -96.7333 308° West 180 207 2,900 -300 Descending Dallas / Fort Worth TRACON
08:39PM 32.8833 -96.7667 320° Northwest 188 216 2,500 -420 Descending Dallas / Fort Worth TRACON
08:40PM 32.9000 -96.8333 287° West 174 200 2,100 -780 Descending Dallas / Fort Worth TRACON
08:41PM 32.8667 -96.8667 220° Southwest 137 158 1,000 -1,140 Descending Dallas / Fort Worth TRACON
08:43PM 32.8471 -96.8518 157° South  Level Estimated
08:50PM 32.8471 -96.8518 157° South  Level Estimated